Terminal Aerodrome Forecast
Issued by NWS

Home | Current Version | Previous Version | Text Only | Print | Product List | Glossary On
Versions: 1 2 3 4 5 6 7 8 9 10 11 12 13 14 15 16 17 18
298
FTUS44 KSJT 200648 AAA
TAFJCT
TAF AMD
KJCT 200648Z 2007/2106 VRB15G25KT 1SM TSRA OVC020CB
     FM200730 20008KT P6SM BKN020
     FM201100 18008KT P6SM BKN040
     FM201700 22008KT P6SM SCT250
     FM210000 VRB05KT P6SM OVC250=

USA.gov is the U.S. government's official web portal to all federal, state and local government web resources and services.